Humeston, IA (50123)

12:58 PM CDT on May 30, 2015 (GMT -0500)
Corydon IA | | Change Station
CLOSE
Current Station
Personal Weather Station
Location: Corydon, IA
Elevation: 1089 ft
Nearby Weather Stations

Elev 1089 ft 40.77 °N, 93.34 °W | Updated 9 seconds ago

Overcast
Overcast
63.1 °F
Feels Like 63.1 °F
N
10.7
Wind Variable Wind from NNW
Gusts 15.2 mph

Today
High -- | Low -- °F
--% Chance of Precip.
Yesterday
High -- | Low -- °F
Precip. -- in
5:45 AM 8:37 PM
Waxing Gibbous, 91% visible
Pressure 30.10 in
Visibility 4.0 miles
Clouds Mostly Cloudy 900 ft
Mostly Cloudy 1400 ft
Mostly Cloudy 2000 ft
Dew Point 56 °F
Humidity 77%
Rainfall 0.00 in
Snow Depth Not available.
UV 6 out of 12
Pollen 7.60 out of 12
Air Quality Not available.
Flu Activity No Activity
METAR KCNC 301735Z AUTO 35011G19KT 4SM BR BKN009 BKN014 BKN020 14/13 A3010 RMK AO2

More Conditions Fewer Conditions

Pressure 30.10 in
Visibility 4.0 miles
Clouds Mostly Cloudy 900 ft
Mostly Cloudy 1400 ft
Mostly Cloudy 2000 ft
Dew Point 56 °F
Humidity 77%
Rainfall 0.00 in
Snow Depth Not available.
UV 6 out of 12
Pollen 7.60 out of 12
Air Quality Not available.
Flu Activity No Activity
METAR KCNC 301735Z AUTO 35011G19KT 4SM BR BKN009 BKN014 BKN020 14/13 A3010 RMK AO2

More Conditions Fewer Conditions

10-Day Weather Forecast

Almanac

Astronomy

May. 30, 2015 Rise Set
Actual Time
Civil Twilight
Nautical Twilight
Astronomical Twilight
Moon
Length of Visible Light
Length of Day
Tomorrow will be .
, % of the Moon is Illuminated

Today's Extremes

State Highs State Lows

Community

WunderPhotos

Upload Photos

1,825,580 photos uploaded!

WunderBlogs® & News

Nearby

Air Quality

  Air Quality AQ Index Pollutant
Not available.

Snow Depth

Station Depth Elevation

Earthquake Activity

City Distance Mag. Time & Date
Minimum magnitude displayed is 2.5.

Coastal Water Temperatures

Place Temperature

Stations

Nearby Weather Stations

Station Location Temp. Windchill Dew Point Humidity Wind Precip. Elev Updated Type